createdAt,value
2023-04-02T00:00:11.462Z,62.60
2023-04-02T00:03:09.127Z,58.90
2023-04-02T00:05:52.231Z,57.83
2023-04-02T00:08:41.253Z,59.70
2023-04-02T00:11:10.311Z,61.96
2023-04-02T00:13:44.761Z,62.57
2023-04-02T00:16:24.128Z,59.88
2023-04-02T00:18:55.885Z,56.93
2023-04-02T00:21:30.590Z,58.01
2023-04-02T00:24:02.012Z,60.15
2023-04-02T00:26:41.061Z,61.73
2023-04-02T00:29:13.072Z,63.02
2023-04-02T00:32:00.090Z,60.76
2023-04-02T00:34:33.635Z,57.56
2023-04-02T00:37:02.050Z,58.54
2023-04-02T00:39:34.883Z,60.30
2023-04-02T00:42:05.582Z,61.99
2023-04-02T00:44:44.668Z,63.35
2023-04-02T00:47:37.600Z,60.77
2023-04-02T00:50:19.129Z,57.23
2023-04-02T00:52:51.060Z,58.68
2023-04-02T00:55:31.278Z,60.24
2023-04-02T00:58:01.440Z,61.45
2023-04-02T01:00:36.330Z,62.95
2023-04-02T01:03:19.574Z,61.31
2023-04-02T01:05:50.497Z,57.83
2023-04-02T01:08:27.522Z,58.17
2023-04-02T01:11:07.751Z,60.16
2023-04-02T01:13:48.426Z,61.66
2023-04-02T01:16:29.541Z,63.18
2023-04-02T01:19:13.823Z,60.91
2023-04-02T01:21:54.293Z,56.59
2023-04-02T01:24:25.407Z,58.19
2023-04-02T01:27:03.809Z,59.87
2023-04-02T01:29:43.390Z,61.43
2023-04-02T01:32:17.838Z,62.95
2023-04-02T01:34:47.742Z,61.23
2023-04-02T01:37:32.342Z,58.06
2023-04-02T01:40:07.152Z,58.78
2023-04-02T01:43:02.161Z,60.62
2023-04-02T01:45:30.491Z,62.30
2023-04-02T01:47:58.866Z,63.37
2023-04-02T01:50:37.446Z,60.62
2023-04-02T01:53:12.994Z,57.88
2023-04-02T01:56:00.105Z,58.18
2023-04-02T01:58:34.204Z,59.87
2023-04-02T02:01:12.854Z,61.70
2023-04-02T02:03:43.052Z,62.79
2023-04-02T02:06:16.768Z,60.30
2023-04-02T02:09:05.073Z,57.32
2023-04-02T02:11:36.536Z,58.04
2023-04-02T02:14:18.804Z,59.85
2023-04-02T02:16:47.911Z,60.76
2023-04-02T02:19:29.478Z,62.39
2023-04-02T02:22:09.562Z,62.93
2023-04-02T02:24:38.026Z,59.21
2023-04-02T02:27:11.914Z,57.39
2023-04-02T02:29:41.185Z,58.92
2023-04-02T02:32:11.371Z,60.50
2023-04-02T02:34:48.870Z,61.76
2023-04-02T02:37:23.714Z,63.04
2023-04-02T02:39:58.108Z,61.01
2023-04-02T02:42:37.092Z,57.48
2023-04-02T02:45:16.781Z,58.29
2023-04-02T02:47:45.628Z,60.11
2023-04-02T02:50:26.211Z,61.78
2023-04-02T02:52:58.109Z,63.24
2023-04-02T02:55:37.088Z,60.74
2023-04-02T02:58:19.115Z,56.93
2023-04-02T03:00:47.226Z,57.85
2023-04-02T03:03:23.308Z,59.40
2023-04-02T03:06:01.763Z,60.89
2023-04-02T03:08:42.342Z,61.88
2023-04-02T03:11:57.379Z,63.05
2023-04-02T03:14:41.096Z,60.07
2023-04-02T03:17:21.028Z,56.53
2023-04-02T03:19:59.470Z,57.97
2023-04-02T03:22:38.853Z,59.90
2023-04-02T03:25:25.940Z,61.38
2023-04-02T03:28:02.149Z,62.15
2023-04-02T03:30:47.132Z,63.51
2023-04-02T03:33:32.808Z,60.67
2023-04-02T03:36:13.177Z,56.78
2023-04-02T03:38:47.442Z,57.87
2023-04-02T03:41:24.208Z,59.64
2023-04-02T03:44:03.126Z,60.94
2023-04-02T03:46:46.958Z,61.94
2023-04-02T03:49:40.753Z,63.35
2023-04-02T03:52:26.959Z,59.20
2023-04-02T03:54:57.601Z,57.19
2023-04-02T03:57:30.439Z,58.88
2023-04-02T04:00:14.512Z,60.75
2023-04-02T04:03:16.980Z,62.14
2023-04-02T04:06:27.616Z,61.54
2023-04-02T04:09:06.177Z,57.58
2023-04-02T04:11:38.024Z,58.09
2023-04-02T04:14:18.304Z,59.66
2023-04-02T04:16:57.782Z,60.88
2023-04-02T04:19:35.369Z,61.80
2023-04-02T04:22:19.244Z,63.16
2023-04-02T04:24:47.949Z,60.24
2023-04-02T04:27:33.627Z,56.69
2023-04-02T04:30:42.507Z,57.61
2023-04-02T04:33:16.986Z,59.24
2023-04-02T04:35:49.685Z,60.48
2023-04-02T04:38:44.420Z,61.35
2023-04-02T04:41:16.045Z,62.72
2023-04-02T04:44:06.845Z,61.21
2023-04-02T04:46:47.098Z,57.84
2023-04-02T04:49:36.598Z,58.39
2023-04-02T04:52:23.856Z,60.07
2023-04-02T04:54:52.452Z,61.45
2023-04-02T04:57:41.995Z,62.34
2023-04-02T05:00:32.898Z,62.76
2023-04-02T05:03:24.278Z,59.89
2023-04-02T05:05:52.886Z,57.22
2023-04-02T05:08:27.216Z,58.05
2023-04-02T05:11:11.253Z,59.45
2023-04-02T05:13:58.761Z,60.50
2023-04-02T05:16:32.037Z,61.79
2023-04-02T05:19:11.402Z,61.88
2023-04-02T05:22:21.453Z,63.14
2023-04-02T05:25:31.025Z,59.91
2023-04-02T05:28:47.423Z,57.13
2023-04-02T05:31:23.276Z,59.06
2023-04-02T05:33:51.528Z,60.54
2023-04-02T05:36:29.318Z,61.26
2023-04-02T05:38:59.357Z,62.07
2023-04-02T05:41:38.603Z,63.17
2023-04-02T05:44:29.005Z,61.89
2023-04-02T05:47:23.142Z,57.38
2023-04-02T05:50:08.623Z,58.16
2023-04-02T05:52:42.265Z,59.54
2023-04-02T05:55:13.141Z,61.16
2023-04-02T05:58:13.464Z,62.09
2023-04-02T06:01:15.444Z,62.55
2023-04-02T06:03:59.379Z,63.38
2023-04-02T06:06:39.557Z,59.49
2023-04-02T06:09:18.158Z,55.88
2023-04-02T06:11:51.525Z,57.35
2023-04-02T06:14:19.683Z,58.82
2023-04-02T06:16:48.340Z,60.03
2023-04-02T06:19:24.056Z,61.39
2023-04-02T06:21:53.324Z,62.32
2023-04-02T06:24:24.552Z,63.46
2023-04-02T06:26:58.748Z,61.01
2023-04-02T06:29:38.377Z,56.17
2023-04-02T06:32:08.895Z,55.99
2023-04-02T06:34:39.323Z,56.57
2023-04-02T06:37:41.070Z,58.45
2023-04-02T06:40:45.542Z,59.39
2023-04-02T06:43:36.454Z,59.94
2023-04-02T06:46:15.623Z,61.10
2023-04-02T06:48:44.269Z,61.41
2023-04-02T06:51:14.864Z,62.27
2023-04-02T06:53:50.679Z,58.93
2023-04-02T06:56:37.262Z,57.05
2023-04-02T06:59:09.491Z,58.33
2023-04-02T07:02:01.411Z,59.69
2023-04-02T07:04:29.774Z,60.80
2023-04-02T07:06:58.175Z,61.55
2023-04-02T07:09:26.950Z,62.31
2023-04-02T07:11:54.844Z,62.12
2023-04-02T07:14:22.785Z,58.53
2023-04-02T07:16:51.225Z,57.02
2023-04-02T07:19:22.406Z,58.23
2023-04-02T07:21:50.580Z,59.35
2023-04-02T07:24:18.670Z,60.70
2023-04-02T07:26:48.267Z,61.63
2023-04-02T07:29:17.554Z,62.04
2023-04-02T07:31:45.826Z,62.81
2023-04-02T07:34:13.933Z,60.99
2023-04-02T07:36:41.846Z,58.72
2023-04-02T07:39:10.183Z,58.59
2023-04-02T07:41:59.347Z,59.57
2023-04-02T07:44:28.797Z,60.62
2023-04-02T07:46:56.778Z,61.84
2023-04-02T07:49:24.931Z,62.61
2023-04-02T07:51:53.400Z,61.29
2023-04-02T07:54:21.296Z,57.87
2023-04-02T07:56:52.094Z,57.06
2023-04-02T07:59:19.986Z,58.25
2023-04-02T08:01:48.338Z,59.61
2023-04-02T08:04:19.704Z,60.42
2023-04-02T08:06:48.814Z,61.02
2023-04-02T08:09:17.311Z,61.87
2023-04-02T08:11:46.544Z,62.08
2023-04-02T08:14:15.064Z,62.88
2023-04-02T08:16:55.802Z,59.79
2023-04-02T08:19:24.092Z,56.76
2023-04-02T08:21:52.759Z,57.20
2023-04-02T08:24:21.511Z,58.59
2023-04-02T08:26:50.084Z,59.72
2023-04-02T08:29:18.092Z,60.34
2023-04-02T08:31:46.193Z,60.60
2023-04-02T08:34:14.120Z,61.70
2023-04-02T08:36:45.233Z,62.21
2023-04-02T08:39:13.528Z,61.88
2023-04-02T08:42:01.020Z,62.54
2023-04-02T08:45:08.104Z,61.86
2023-04-02T08:47:44.354Z,58.06
2023-04-02T08:50:34.213Z,57.93
2023-04-02T08:53:11.389Z,59.12
2023-04-02T08:56:06.008Z,59.44
2023-04-02T08:58:50.352Z,60.75
2023-04-02T09:01:35.057Z,60.96
2023-04-02T09:04:07.559Z,62.14
2023-04-02T09:06:36.567Z,62.11
2023-04-02T09:09:05.346Z,62.94
2023-04-02T09:11:53.693Z,60.03
2023-04-02T09:14:47.555Z,56.54
2023-04-02T09:17:23.765Z,57.42
2023-04-02T09:20:10.525Z,58.59
2023-04-02T09:22:39.713Z,59.79
2023-04-02T09:25:16.209Z,60.42
2023-04-02T09:27:49.841Z,60.74
2023-04-02T09:30:30.246Z,61.39
2023-04-02T09:33:07.878Z,61.33
2023-04-02T09:35:57.976Z,61.71
2023-04-02T09:38:34.195Z,62.29
2023-04-02T09:41:08.056Z,62.66
2023-04-02T09:43:39.789Z,58.35
2023-04-02T09:46:23.894Z,57.03
2023-04-02T09:48:58.522Z,58.08
2023-04-02T09:51:33.322Z,59.14
2023-04-02T09:54:04.735Z,59.81
2023-04-02T09:57:06.940Z,60.41
2023-04-02T09:59:50.219Z,60.83
2023-04-02T10:02:29.124Z,61.05
2023-04-02T10:05:03.625Z,61.31
2023-04-02T10:07:43.948Z,61.71
2023-04-02T10:10:36.824Z,62.10
2023-04-02T10:13:20.050Z,62.29
2023-04-02T10:16:12.143Z,58.75
2023-04-02T10:18:58.832Z,57.14
2023-04-02T10:21:36.119Z,57.78
2023-04-02T10:24:13.155Z,59.21
2023-04-02T10:27:11.650Z,60.27
2023-04-02T10:29:56.078Z,60.64
2023-04-02T10:32:48.831Z,60.66
2023-04-02T10:35:41.330Z,61.44
2023-04-02T10:38:34.031Z,60.83
2023-04-02T10:41:57.192Z,61.48
2023-04-02T10:45:17.914Z,61.72
2023-04-02T10:48:09.577Z,62.01
2023-04-02T10:50:55.718Z,61.92
2023-04-02T10:53:57.113Z,62.27
2023-04-02T10:56:33.138Z,62.86
2023-04-02T10:59:30.760Z,58.64
2023-04-02T11:02:04.931Z,56.09
2023-04-02T11:04:47.894Z,57.09
2023-04-02T11:07:19.234Z,57.97
2023-04-02T11:09:52.153Z,58.93
2023-04-02T11:12:42.467Z,59.47
2023-04-02T11:15:22.059Z,59.56
2023-04-02T11:17:55.010Z,59.88
2023-04-02T11:20:59.798Z,60.54
2023-04-02T11:24:01.157Z,60.48
2023-04-02T11:27:05.620Z,60.98
2023-04-02T11:30:07.214Z,60.70
2023-04-02T11:33:44.271Z,60.31
2023-04-02T11:36:54.384Z,60.23
2023-04-02T11:39:59.920Z,59.98
2023-04-02T11:42:33.971Z,59.98
2023-04-02T11:45:23.089Z,60.86
2023-04-02T11:48:00.795Z,60.61
2023-04-02T11:50:32.699Z,60.27
2023-04-02T11:53:11.732Z,60.38
2023-04-02T11:55:46.048Z,60.64
2023-04-02T11:58:35.183Z,60.55
2023-04-02T12:09:23.808Z,60.09
2023-04-02T12:31:19.157Z,58.88
2023-04-02T12:33:46.072Z,58.79
2023-04-02T12:36:15.649Z,58.98
2023-04-02T12:39:01.981Z,58.77
2023-04-02T12:53:40.748Z,58.89
2023-04-02T12:56:18.827Z,58.73
2023-04-02T12:59:02.095Z,58.65
2023-04-02T13:01:32.395Z,58.33
2023-04-02T13:04:09.208Z,58.44
2023-04-02T13:06:38.801Z,58.36
2023-04-02T13:09:28.929Z,58.20
2023-04-02T13:11:57.597Z,58.51
2023-04-02T13:14:26.245Z,58.32
2023-04-02T13:16:55.009Z,58.18
2023-04-02T13:19:33.697Z,57.88
2023-04-02T13:22:03.399Z,57.89
2023-04-02T13:24:33.200Z,57.73
2023-04-02T13:27:03.161Z,57.80
2023-04-02T13:29:36.313Z,58.14
2023-04-02T13:32:13.347Z,58.24
2023-04-02T13:34:41.245Z,58.53
2023-04-02T13:37:12.627Z,58.30
2023-04-02T13:39:40.806Z,58.44
2023-04-02T13:42:11.770Z,58.37
2023-04-02T13:44:39.978Z,58.64
2023-04-02T13:47:14.424Z,58.67
2023-04-02T13:49:42.303Z,58.78
2023-04-02T13:58:45.833Z,58.71
2023-04-02T14:01:14.601Z,58.48
2023-04-02T14:03:46.917Z,58.58
2023-04-02T14:06:32.108Z,58.50
2023-04-02T14:09:09.983Z,58.23
2023-04-02T14:12:01.292Z,58.23
2023-04-02T14:15:00.796Z,57.91
2023-04-02T14:18:12.008Z,57.90
2023-04-02T14:21:31.375Z,57.64
2023-04-02T14:24:16.194Z,57.48
2023-04-02T14:27:39.711Z,57.54
2023-04-02T14:31:01.425Z,57.08
2023-04-02T14:34:02.597Z,56.71
2023-04-02T14:36:58.699Z,57.18
2023-04-02T14:39:54.519Z,56.45
2023-04-02T14:42:28.834Z,56.80
2023-04-02T14:45:14.155Z,56.60
2023-04-02T14:47:55.796Z,56.46
2023-04-02T14:50:40.075Z,56.13
2023-04-02T14:53:16.175Z,56.06
2023-04-02T14:55:47.924Z,56.04
2023-04-02T14:58:30.950Z,55.68
2023-04-02T15:01:13.833Z,55.18
2023-04-02T15:03:51.243Z,55.63
2023-04-02T15:06:44.337Z,55.66
2023-04-02T15:09:27.974Z,55.62
2023-04-02T15:12:23.379Z,55.78
2023-04-02T15:15:02.724Z,56.12
2023-04-02T15:17:32.066Z,55.71
2023-04-02T15:20:16.904Z,55.54
2023-04-02T15:23:03.439Z,55.22
2023-04-02T15:25:51.219Z,55.18
2023-04-02T15:28:37.259Z,55.24
2023-04-02T15:31:14.604Z,54.72
2023-04-02T15:34:06.391Z,54.73
2023-04-02T15:37:06.211Z,54.46
2023-04-02T15:39:55.500Z,54.64
2023-04-02T15:42:44.676Z,54.24
2023-04-02T15:45:12.769Z,53.93
2023-04-02T15:47:40.856Z,54.23
2023-04-02T15:50:40.956Z,53.92
2023-04-02T15:53:59.017Z,53.78
2023-04-02T15:56:59.870Z,53.79
2023-04-02T15:59:52.754Z,54.19
2023-04-02T16:02:38.346Z,53.89
2023-04-02T16:05:24.285Z,54.25
2023-04-02T16:08:12.174Z,53.99
2023-04-02T16:10:43.269Z,53.57
2023-04-02T16:13:31.735Z,53.59
2023-04-02T16:16:23.230Z,53.85
2023-04-02T16:19:26.661Z,53.65
2023-04-02T16:22:06.372Z,53.18
2023-04-02T16:24:34.893Z,52.78
2023-04-02T16:27:30.855Z,52.76
2023-04-02T16:30:50.163Z,51.78
2023-04-02T16:33:53.401Z,50.93
2023-04-02T16:36:33.290Z,51.04
2023-04-02T16:39:23.447Z,51.45
2023-04-02T16:42:17.571Z,51.24
2023-04-02T16:45:22.084Z,50.21
2023-04-02T16:48:07.420Z,49.86
2023-04-02T16:51:17.788Z,49.86
2023-04-02T16:54:48.623Z,50.15
2023-04-02T16:57:42.631Z,50.42
2023-04-02T17:00:17.287Z,50.37
2023-04-02T17:03:10.168Z,50.73
2023-04-02T17:05:59.710Z,50.80
2023-04-02T17:08:33.112Z,49.97
2023-04-02T17:11:19.561Z,49.89
2023-04-02T17:13:56.726Z,50.13
2023-04-02T17:16:42.241Z,49.56
2023-04-02T17:19:13.498Z,48.73
2023-04-02T17:21:52.325Z,48.56
2023-04-02T17:24:41.095Z,48.48
2023-04-02T17:27:30.639Z,49.10
2023-04-02T17:30:04.942Z,49.19
2023-04-02T17:32:33.817Z,49.09
2023-04-02T17:35:44.979Z,48.66
2023-04-02T17:39:12.105Z,48.74
2023-04-02T17:41:44.217Z,48.60
2023-04-02T17:45:03.176Z,48.51
2023-04-02T17:47:37.600Z,49.15
2023-04-02T17:50:17.777Z,49.02
2023-04-02T17:53:26.174Z,49.28
2023-04-02T17:56:06.613Z,49.74
2023-04-02T17:59:02.251Z,50.04
2023-04-02T18:01:50.119Z,50.16
2023-04-02T18:05:00.934Z,50.07
2023-04-02T18:08:05.985Z,50.24
2023-04-02T18:11:16.938Z,50.16
2023-04-02T18:14:03.548Z,50.22
2023-04-02T18:16:42.828Z,50.20
2023-04-02T18:19:22.822Z,50.37
2023-04-02T18:22:34.587Z,50.18
2023-04-02T18:25:24.872Z,50.39
2023-04-02T18:27:55.762Z,50.52
2023-04-02T18:30:56.082Z,50.67
2023-04-02T18:34:20.186Z,50.86
2023-04-02T18:37:07.936Z,51.09
2023-04-02T18:40:14.365Z,51.24
2023-04-02T18:43:27.102Z,51.51
2023-04-02T18:46:30.217Z,51.71
2023-04-02T18:49:19.715Z,51.81
2023-04-02T18:51:54.671Z,51.70
2023-04-02T18:54:38.824Z,51.78
2023-04-02T18:57:25.166Z,51.88
2023-04-02T19:00:21.199Z,52.06
2023-04-02T19:03:18.655Z,52.15
2023-04-02T19:06:14.043Z,52.27
2023-04-02T19:08:59.114Z,52.48
2023-04-02T19:11:31.443Z,52.54
2023-04-02T19:14:18.041Z,52.84
2023-04-02T19:17:27.231Z,52.71
2023-04-02T19:20:13.602Z,52.77
2023-04-02T19:23:29.858Z,52.95
2023-04-02T19:26:09.632Z,53.01
2023-04-02T19:29:03.996Z,52.77
2023-04-02T19:31:55.910Z,52.68
2023-04-02T19:34:40.528Z,52.89
2023-04-02T19:37:14.347Z,53.01
2023-04-02T19:40:26.979Z,52.95
2023-04-02T19:42:55.163Z,52.90
2023-04-02T19:45:44.210Z,52.91
2023-04-02T19:48:23.053Z,52.90
2023-04-02T19:50:51.370Z,53.04
2023-04-02T19:53:20.026Z,53.31
2023-04-02T19:55:48.949Z,53.46
2023-04-02T19:58:33.407Z,53.57
2023-04-02T20:01:05.152Z,53.64
2023-04-02T20:03:36.805Z,53.65
2023-04-02T20:06:05.277Z,53.49
2023-04-02T20:08:33.498Z,53.54
2023-04-02T20:11:01.934Z,53.66
2023-04-02T20:13:30.022Z,53.72
2023-04-02T20:16:03.060Z,53.82
2023-04-02T20:18:32.145Z,53.95
2023-04-02T20:21:05.732Z,54.01
2023-04-02T20:23:35.836Z,54.12
2023-04-02T20:26:05.493Z,54.33
2023-04-02T20:28:33.830Z,54.50
2023-04-02T20:31:08.296Z,54.66
2023-04-02T20:33:37.291Z,54.64
2023-04-02T20:36:14.898Z,54.79
2023-04-02T20:38:46.897Z,54.84
2023-04-02T20:41:17.649Z,54.83
2023-04-02T20:43:45.851Z,54.89
2023-04-02T20:46:14.115Z,55.12
2023-04-02T20:48:42.446Z,55.18
2023-04-02T20:51:14.330Z,55.29
2023-04-02T20:53:43.159Z,55.32
2023-04-02T20:56:16.981Z,55.47
2023-04-02T20:58:45.290Z,55.46
2023-04-02T21:01:27.372Z,55.61
2023-04-02T21:04:01.768Z,55.73
2023-04-02T21:06:33.287Z,55.76
2023-04-02T21:09:08.486Z,55.84
2023-04-02T21:11:37.386Z,56.02
2023-04-02T21:14:05.566Z,55.94
2023-04-02T21:16:33.964Z,56.01
2023-04-02T21:19:08.378Z,56.10
2023-04-02T21:21:38.321Z,56.30
2023-04-02T21:24:08.577Z,56.49
2023-04-02T21:26:40.026Z,56.49
2023-04-02T21:29:08.206Z,56.79
2023-04-02T21:31:38.756Z,57.03
2023-04-02T21:34:07.654Z,57.10
2023-04-02T21:36:40.200Z,57.22
2023-04-02T21:39:17.786Z,57.34
2023-04-02T21:41:50.312Z,57.43
2023-04-02T21:44:22.698Z,57.52
2023-04-02T21:46:53.093Z,57.76
2023-04-02T21:49:23.307Z,58.00
2023-04-02T21:51:51.924Z,58.10
2023-04-02T21:54:20.024Z,58.15
2023-04-02T21:56:49.040Z,58.36
2023-04-02T21:59:18.403Z,58.35
2023-04-02T22:01:49.601Z,58.74
2023-04-02T22:04:24.489Z,59.04
2023-04-02T22:06:53.608Z,58.95
2023-04-02T22:09:24.862Z,59.05
2023-04-02T22:12:01.879Z,59.27
2023-04-02T22:14:30.862Z,59.46
2023-04-02T22:16:59.084Z,59.81
2023-04-02T22:19:27.842Z,59.88
2023-04-02T22:21:56.933Z,59.89
2023-04-02T22:24:25.429Z,60.07
2023-04-02T22:26:53.865Z,60.24
2023-04-02T22:29:22.284Z,60.58
2023-04-02T22:31:50.498Z,60.66
2023-04-02T22:34:18.586Z,60.73
2023-04-02T22:36:46.750Z,60.71
2023-04-02T22:39:16.227Z,60.67
2023-04-02T22:41:44.195Z,60.99
2023-04-02T22:44:15.985Z,61.38
2023-04-02T22:46:44.137Z,61.28
2023-04-02T22:49:12.579Z,61.59
2023-04-02T22:51:40.588Z,61.66
2023-04-02T22:54:08.603Z,61.59
2023-04-02T22:56:37.761Z,61.80
2023-04-02T22:59:05.975Z,61.87
2023-04-02T23:01:36.459Z,62.16
2023-04-02T23:04:05.522Z,63.18
2023-04-02T23:06:33.933Z,60.40
2023-04-02T23:09:02.019Z,57.18
2023-04-02T23:11:30.078Z,57.12
2023-04-02T23:13:58.599Z,57.94
2023-04-02T23:16:28.991Z,58.57
2023-04-02T23:18:57.700Z,59.53
2023-04-02T23:21:26.934Z,59.83
2023-04-02T23:23:55.421Z,60.33
2023-04-02T23:26:29.567Z,60.85
2023-04-02T23:28:59.775Z,61.18
2023-04-02T23:31:28.313Z,61.19
2023-04-02T23:33:56.358Z,61.60
2023-04-02T23:36:31.821Z,62.30
2023-04-02T23:39:04.473Z,60.94
2023-04-02T23:41:32.266Z,55.76
2023-04-02T23:44:00.224Z,55.71
2023-04-02T23:46:29.668Z,57.08
2023-04-02T23:48:58.872Z,57.80
2023-04-02T23:51:28.873Z,58.50
2023-04-02T23:53:56.996Z,59.66
2023-04-02T23:56:25.939Z,60.09
2023-04-02T23:58:53.861Z,60.49
